createdAt,value
2022-10-10T00:01:21.163Z,8.80
2022-10-10T00:03:49.651Z,8.80
2022-10-10T00:06:17.991Z,8.70
2022-10-10T00:08:47.125Z,8.70
2022-10-10T00:11:18.940Z,8.70
2022-10-10T00:13:47.637Z,8.60
2022-10-10T00:16:16.340Z,8.60
2022-10-10T00:18:44.541Z,8.60
2022-10-10T00:21:12.790Z,8.60
2022-10-10T00:23:40.837Z,8.60
2022-10-10T00:26:09.824Z,8.60
2022-10-10T00:28:40.482Z,8.60
2022-10-10T00:31:09.379Z,8.60
2022-10-10T00:33:38.722Z,8.60
2022-10-10T00:36:08.183Z,8.60
2022-10-10T00:38:36.542Z,8.60
2022-10-10T00:41:05.114Z,8.60
2022-10-10T00:43:34.146Z,8.50
2022-10-10T00:46:03.905Z,8.50
2022-10-10T00:48:36.096Z,8.60
2022-10-10T00:51:09.504Z,8.50
2022-10-10T00:53:41.036Z,8.50
2022-10-10T00:56:10.860Z,8.50
2022-10-10T00:58:42.768Z,8.40
2022-10-10T01:01:12.437Z,8.40
2022-10-10T01:03:40.725Z,8.40
2022-10-10T01:06:09.186Z,8.40
2022-10-10T01:08:37.807Z,8.50
2022-10-10T01:11:22.433Z,8.40
2022-10-10T01:14:00.775Z,8.50
2022-10-10T01:16:37.543Z,8.40
2022-10-10T01:19:24.015Z,8.40
2022-10-10T01:22:10.318Z,8.40
2022-10-10T01:24:56.825Z,8.40
2022-10-10T01:27:32.058Z,8.50
2022-10-10T01:30:06.683Z,8.40
2022-10-10T01:32:40.827Z,8.40
2022-10-10T01:35:29.864Z,8.40
2022-10-10T01:38:12.967Z,8.40
2022-10-10T01:40:49.998Z,8.30
2022-10-10T01:43:19.125Z,8.30
2022-10-10T01:45:51.768Z,8.30
2022-10-10T01:48:24.345Z,8.30
2022-10-10T01:51:19.437Z,8.30
2022-10-10T01:53:58.363Z,8.30
2022-10-10T01:56:36.377Z,8.30
2022-10-10T01:59:25.176Z,8.30
2022-10-10T02:01:59.293Z,8.20
2022-10-10T02:04:36.116Z,8.10
2022-10-10T02:07:11.612Z,8.20
2022-10-10T02:09:43.266Z,8.20
2022-10-10T02:12:14.106Z,8.30
2022-10-10T02:14:47.681Z,8.20
2022-10-10T02:17:18.419Z,8.20
2022-10-10T02:19:52.598Z,8.10
2022-10-10T02:22:22.201Z,8.10
2022-10-10T02:24:50.563Z,8.10
2022-10-10T02:27:25.348Z,8.10
2022-10-10T02:29:55.103Z,8.10
2022-10-10T02:32:31.297Z,8.10
2022-10-10T02:35:05.080Z,8.10
2022-10-10T02:37:33.873Z,8.10
2022-10-10T02:40:06.394Z,8.20
2022-10-10T02:42:35.752Z,8.20
2022-10-10T02:45:05.080Z,8.20
2022-10-10T02:47:34.398Z,8.10
2022-10-10T02:50:02.347Z,8.10
2022-10-10T02:52:30.456Z,8.10
2022-10-10T02:54:58.545Z,8.10
2022-10-10T02:57:26.479Z,8.20
2022-10-10T02:59:54.430Z,8.10
2022-10-10T03:02:22.568Z,8.10
2022-10-10T03:04:51.947Z,8.10
2022-10-10T03:07:19.922Z,8.20
2022-10-10T03:09:47.905Z,8.10
2022-10-10T03:12:16.099Z,8.00
2022-10-10T03:14:44.068Z,8.00
2022-10-10T03:17:12.293Z,8.00
2022-10-10T03:19:40.300Z,7.90
2022-10-10T03:22:10.899Z,7.90
2022-10-10T03:24:38.831Z,8.00
2022-10-10T03:27:06.845Z,7.90
2022-10-10T03:29:34.982Z,7.90
2022-10-10T03:32:03.014Z,7.90
2022-10-10T03:34:33.202Z,7.90
2022-10-10T03:37:01.155Z,8.00
2022-10-10T03:39:30.721Z,7.90
2022-10-10T03:41:58.707Z,7.90
2022-10-10T03:44:26.747Z,7.80
2022-10-10T03:46:54.766Z,7.90
2022-10-10T03:49:22.902Z,7.80
2022-10-10T03:51:50.907Z,7.90
2022-10-10T03:54:18.895Z,7.90
2022-10-10T03:56:48.274Z,7.90
2022-10-10T03:59:16.283Z,7.90
2022-10-10T04:01:44.230Z,7.80
2022-10-10T04:04:12.301Z,7.80
2022-10-10T04:06:40.258Z,7.90
2022-10-10T04:09:10.975Z,7.90
2022-10-10T04:11:40.752Z,7.70
2022-10-10T04:14:10.080Z,7.70
2022-10-10T04:16:38.180Z,7.60
2022-10-10T04:19:06.132Z,7.70
2022-10-10T04:21:34.088Z,7.70
2022-10-10T04:24:02.048Z,7.70
2022-10-10T04:26:30.004Z,7.70
2022-10-10T04:28:57.983Z,7.80
2022-10-10T04:31:27.336Z,7.80
2022-10-10T04:33:55.302Z,7.70
2022-10-10T04:36:23.395Z,7.80
2022-10-10T04:38:51.381Z,7.90
2022-10-10T04:41:19.399Z,7.90
2022-10-10T04:43:47.360Z,8.00
2022-10-10T04:46:15.340Z,7.90
2022-10-10T04:48:44.686Z,8.00
2022-10-10T04:51:12.878Z,7.90
2022-10-10T04:53:40.786Z,7.80
2022-10-10T04:56:08.783Z,7.80
2022-10-10T04:58:36.829Z,7.70
2022-10-10T05:01:05.153Z,7.70
2022-10-10T05:03:33.182Z,7.70
2022-10-10T05:06:02.497Z,7.70
2022-10-10T05:08:30.524Z,7.70
2022-10-10T05:10:58.533Z,7.70
2022-10-10T05:13:26.479Z,7.70
2022-10-10T05:15:54.634Z,7.70
2022-10-10T05:18:26.542Z,7.70
2022-10-10T05:20:54.540Z,7.70
2022-10-10T05:23:24.025Z,7.70
2022-10-10T05:25:52.738Z,7.70
2022-10-10T05:28:20.914Z,7.70
2022-10-10T05:30:48.883Z,7.80
2022-10-10T05:33:16.885Z,7.70
2022-10-10T05:35:44.888Z,7.70
2022-10-10T05:38:12.864Z,7.70
2022-10-10T05:40:43.272Z,7.80
2022-10-10T05:43:11.332Z,7.70
2022-10-10T05:45:39.279Z,7.80
2022-10-10T05:48:07.234Z,7.70
2022-10-10T05:50:39.309Z,7.80
2022-10-10T05:53:07.808Z,7.80
2022-10-10T05:55:36.624Z,7.80
2022-10-10T05:58:06.875Z,7.80
2022-10-10T06:00:36.462Z,7.80
2022-10-10T06:03:04.795Z,7.80
2022-10-10T06:05:32.771Z,7.80
2022-10-10T06:08:07.941Z,7.80
2022-10-10T06:10:41.299Z,7.90
2022-10-10T06:13:11.665Z,7.90
2022-10-10T06:15:39.760Z,8.00
2022-10-10T06:18:08.668Z,8.10
2022-10-10T06:20:37.133Z,8.20
2022-10-10T06:23:05.964Z,8.20
2022-10-10T06:25:40.521Z,8.20
2022-10-10T06:28:11.616Z,8.30
2022-10-10T06:30:43.778Z,8.30
2022-10-10T06:33:13.407Z,8.50
2022-10-10T06:35:43.593Z,8.60
2022-10-10T06:38:12.251Z,8.70
2022-10-10T06:40:41.035Z,8.80
2022-10-10T06:43:12.515Z,8.90
2022-10-10T06:45:42.876Z,9.00
2022-10-10T06:48:12.146Z,9.20
2022-10-10T06:50:40.198Z,9.40
2022-10-10T06:53:08.415Z,9.50
2022-10-10T06:55:36.574Z,9.70
2022-10-10T06:58:04.564Z,9.90
2022-10-10T07:00:33.941Z,10.20
2022-10-10T07:03:01.912Z,10.50
2022-10-10T07:05:29.886Z,10.80
2022-10-10T07:07:58.043Z,11.10
2022-10-10T07:10:26.217Z,11.40
2022-10-10T07:12:54.697Z,11.80
2022-10-10T07:15:22.814Z,12.10
2022-10-10T07:17:58.736Z,12.40
2022-10-10T07:20:27.091Z,12.50
2022-10-10T07:22:55.123Z,12.50
2022-10-10T07:25:23.174Z,12.40
2022-10-10T07:27:51.316Z,12.40
2022-10-10T07:30:21.274Z,12.40
2022-10-10T07:32:51.348Z,12.70
2022-10-10T07:35:19.814Z,13.80
2022-10-10T07:37:47.791Z,14.90
2022-10-10T07:40:16.081Z,15.80
2022-10-10T07:42:44.032Z,16.90
2022-10-10T07:45:12.702Z,17.70
2022-10-10T07:47:40.815Z,18.60
2022-10-10T07:50:12.712Z,19.50
2022-10-10T07:52:41.097Z,20.20
2022-10-10T07:55:10.550Z,20.80
2022-10-10T07:57:38.747Z,21.30
2022-10-10T08:00:10.385Z,21.80
2022-10-10T08:02:40.698Z,22.40
2022-10-10T08:05:19.871Z,23.10
2022-10-10T08:07:48.200Z,23.60
2022-10-10T08:10:17.168Z,24.80
2022-10-10T08:12:45.335Z,25.80
2022-10-10T08:15:14.086Z,26.40
2022-10-10T08:17:42.093Z,26.70
2022-10-10T08:20:11.903Z,26.40
2022-10-10T08:22:39.951Z,25.80
2022-10-10T08:25:09.323Z,24.90
2022-10-10T08:27:37.579Z,24.50
2022-10-10T08:30:06.916Z,24.20
2022-10-10T08:32:34.941Z,24.10
2022-10-10T08:35:03.143Z,24.60
2022-10-10T08:37:37.122Z,25.10
2022-10-10T08:40:07.096Z,25.70
2022-10-10T08:42:46.947Z,26.20
2022-10-10T08:45:21.415Z,26.30
2022-10-10T08:47:52.451Z,26.60
2022-10-10T08:50:25.357Z,26.60
2022-10-10T08:53:00.781Z,26.70
2022-10-10T08:55:33.427Z,26.50
2022-10-10T08:58:11.153Z,26.50
2022-10-10T09:00:44.274Z,27.00
2022-10-10T09:03:21.500Z,27.40
2022-10-10T09:06:17.999Z,27.80
2022-10-10T09:08:57.303Z,28.40
2022-10-10T09:11:44.543Z,29.00
2022-10-10T09:14:27.918Z,30.00
2022-10-10T09:17:04.120Z,30.60
2022-10-10T09:19:43.864Z,30.90
2022-10-10T09:22:17.188Z,30.80
2022-10-10T09:24:52.596Z,31.00
2022-10-10T09:27:26.515Z,30.50
2022-10-10T09:30:02.111Z,30.70
2022-10-10T09:32:35.643Z,30.80
2022-10-10T09:35:16.596Z,31.10
2022-10-10T09:37:48.010Z,31.40
2022-10-10T09:40:25.472Z,31.70
2022-10-10T09:42:53.707Z,31.30
2022-10-10T09:45:28.375Z,31.10
2022-10-10T09:47:57.426Z,30.80
2022-10-10T09:50:25.910Z,30.90
2022-10-10T09:52:54.652Z,31.00
2022-10-10T09:55:28.563Z,31.10
2022-10-10T09:58:00.354Z,31.30
2022-10-10T10:00:35.988Z,32.10
2022-10-10T10:03:16.424Z,32.50
2022-10-10T10:05:48.408Z,32.80
2022-10-10T10:08:28.351Z,32.60
2022-10-10T10:10:59.387Z,32.20
2022-10-10T10:13:31.560Z,32.50
2022-10-10T10:16:07.384Z,32.60
2022-10-10T10:18:43.267Z,31.70
2022-10-10T10:21:18.723Z,31.40
2022-10-10T10:23:54.646Z,32.00
2022-10-10T10:26:28.408Z,32.50
2022-10-10T10:28:58.793Z,32.50
2022-10-10T10:31:49.790Z,32.60
2022-10-10T10:34:39.105Z,32.40
2022-10-10T10:37:19.824Z,32.40
2022-10-10T10:40:25.489Z,33.50
2022-10-10T10:43:33.983Z,34.10
2022-10-10T10:46:18.071Z,34.80
2022-10-10T10:48:48.521Z,34.90
2022-10-10T10:51:47.497Z,34.30
2022-10-10T10:54:39.483Z,34.10
2022-10-10T11:00:26.381Z,35.20
2022-10-10T11:06:23.017Z,35.90
2022-10-10T11:09:02.656Z,35.10
2022-10-10T11:11:47.809Z,34.40
2022-10-10T11:14:38.586Z,34.60
2022-10-10T11:17:16.097Z,33.40
2022-10-10T11:19:48.320Z,32.50
2022-10-10T11:22:21.278Z,31.90
2022-10-10T11:24:55.606Z,32.10
2022-10-10T11:27:31.265Z,31.70
2022-10-10T11:30:08.749Z,32.40
2022-10-10T11:32:49.373Z,32.40
2022-10-10T11:35:31.735Z,32.40
2022-10-10T11:38:07.691Z,32.00
2022-10-10T11:40:49.415Z,32.10
2022-10-10T11:43:29.363Z,32.20
2022-10-10T11:46:06.902Z,31.60
2022-10-10T11:48:46.777Z,31.20
2022-10-10T11:51:28.962Z,30.30
2022-10-10T11:54:01.571Z,29.00
2022-10-10T11:56:34.223Z,27.70
2022-10-10T11:59:12.977Z,26.60
2022-10-10T12:01:48.109Z,25.80
2022-10-10T12:04:17.611Z,25.00
2022-10-10T12:06:51.634Z,24.30
2022-10-10T12:09:25.414Z,23.70
2022-10-10T12:11:58.913Z,23.40
2022-10-10T12:14:31.185Z,23.20
2022-10-10T12:17:00.308Z,23.20
2022-10-10T12:19:30.696Z,23.40
2022-10-10T12:22:02.379Z,23.70
2022-10-10T12:24:32.567Z,24.30
2022-10-10T12:27:44.426Z,25.00
2022-10-10T12:30:28.092Z,25.60
2022-10-10T12:32:56.626Z,26.60
2022-10-10T12:35:48.199Z,27.20
2022-10-10T12:38:24.226Z,27.40
2022-10-10T12:41:15.764Z,27.10
2022-10-10T12:43:52.959Z,26.20
2022-10-10T12:46:34.588Z,25.50
2022-10-10T12:49:21.261Z,24.90
2022-10-10T12:52:12.674Z,24.60
2022-10-10T12:54:45.721Z,24.10
2022-10-10T12:57:26.199Z,23.60
2022-10-10T12:59:57.516Z,23.20
2022-10-10T13:02:29.201Z,22.80
2022-10-10T13:05:01.099Z,22.60
2022-10-10T13:07:31.777Z,22.50
2022-10-10T13:10:08.850Z,22.40
2022-10-10T13:12:36.913Z,22.20
2022-10-10T13:15:20.216Z,22.20
2022-10-10T13:17:48.218Z,22.10
2022-10-10T13:20:34.769Z,22.20
2022-10-10T13:23:14.663Z,22.20
2022-10-10T13:25:46.988Z,22.30
2022-10-10T13:28:19.052Z,22.20
2022-10-10T13:30:48.038Z,22.10
2022-10-10T13:33:19.456Z,22.00
2022-10-10T13:35:48.722Z,21.90
2022-10-10T13:38:24.451Z,21.80
2022-10-10T13:40:53.450Z,22.00
2022-10-10T13:43:21.583Z,21.80
2022-10-10T13:45:57.238Z,21.70
2022-10-10T13:48:40.854Z,21.60
2022-10-10T13:51:15.520Z,21.70
2022-10-10T13:53:54.223Z,21.70
2022-10-10T13:56:28.886Z,21.80
2022-10-10T13:59:06.683Z,21.90
2022-10-10T14:01:39.210Z,21.90
2022-10-10T14:04:21.270Z,22.00
2022-10-10T14:06:58.321Z,22.10
2022-10-10T14:09:32.957Z,22.00
2022-10-10T14:12:04.260Z,22.00
2022-10-10T14:14:41.884Z,22.10
2022-10-10T14:17:11.979Z,22.00
2022-10-10T14:19:40.574Z,21.90
2022-10-10T14:22:08.712Z,21.90
2022-10-10T14:24:38.047Z,21.90
2022-10-10T14:27:13.473Z,21.90
2022-10-10T14:29:41.608Z,22.00
2022-10-10T14:32:11.640Z,22.10
2022-10-10T14:34:40.161Z,22.10
2022-10-10T14:37:13.340Z,22.10
2022-10-10T14:39:42.712Z,22.10
2022-10-10T14:42:14.166Z,22.00
2022-10-10T14:44:42.402Z,22.00
2022-10-10T14:47:17.640Z,22.00
2022-10-10T14:49:45.910Z,21.90
2022-10-10T14:52:14.181Z,21.80
2022-10-10T14:54:43.559Z,21.70
2022-10-10T14:57:13.420Z,21.70
2022-10-10T14:59:46.302Z,21.70
2022-10-10T15:02:19.543Z,21.60
2022-10-10T15:04:47.598Z,21.50
2022-10-10T15:07:16.289Z,21.30
2022-10-10T15:12:37.542Z,21.10
2022-10-10T15:15:08.121Z,20.90
2022-10-10T15:17:36.480Z,20.80
2022-10-10T15:20:07.087Z,20.70
2022-10-10T15:22:35.203Z,20.60
2022-10-10T15:25:04.912Z,20.50
2022-10-10T15:27:33.251Z,20.40
2022-10-10T15:30:01.681Z,20.40
2022-10-10T15:32:29.761Z,20.40
2022-10-10T15:34:57.960Z,20.30
2022-10-10T15:37:30.448Z,20.30
2022-10-10T15:39:58.411Z,20.20
2022-10-10T15:42:28.848Z,20.10
2022-10-10T15:44:56.903Z,20.00
2022-10-10T15:47:25.096Z,19.90
2022-10-10T15:49:53.127Z,19.80
2022-10-10T15:52:23.030Z,19.70
2022-10-10T15:54:51.478Z,19.50
2022-10-10T15:57:20.076Z,19.40
2022-10-10T15:59:49.812Z,19.20
2022-10-10T16:02:19.568Z,19.10
2022-10-10T16:04:47.728Z,19.00
2022-10-10T16:07:34.590Z,18.80
2022-10-10T16:10:05.261Z,18.70
2022-10-10T16:12:33.302Z,18.60
2022-10-10T16:15:06.943Z,18.50
2022-10-10T16:17:35.343Z,18.40
2022-10-10T16:20:04.784Z,18.40
2022-10-10T16:22:33.092Z,18.30
2022-10-10T16:25:21.193Z,18.20
2022-10-10T16:27:49.275Z,18.30
2022-10-10T16:30:19.865Z,18.20
2022-10-10T16:32:48.127Z,18.10
2022-10-10T16:35:16.330Z,18.10
2022-10-10T16:37:44.392Z,18.00
2022-10-10T16:40:13.263Z,17.90
2022-10-10T16:42:41.277Z,17.90
2022-10-10T16:45:11.317Z,17.90
2022-10-10T16:47:40.667Z,17.80
2022-10-10T16:50:09.875Z,17.70
2022-10-10T16:52:38.567Z,17.70
2022-10-10T16:55:08.283Z,17.80
2022-10-10T16:57:36.755Z,17.70
2022-10-10T17:00:06.351Z,17.60
2022-10-10T17:02:34.587Z,17.60
2022-10-10T17:05:05.913Z,17.60
2022-10-10T17:07:35.975Z,17.50
2022-10-10T17:10:04.181Z,17.50
2022-10-10T17:12:32.217Z,17.50
2022-10-10T17:15:01.465Z,17.40
2022-10-10T17:17:29.480Z,17.40
2022-10-10T17:19:57.453Z,17.30
2022-10-10T17:22:26.829Z,17.40
2022-10-10T17:24:54.815Z,17.30
2022-10-10T17:27:22.924Z,17.30
2022-10-10T17:29:53.779Z,17.20
2022-10-10T17:32:22.167Z,17.20
2022-10-10T17:34:50.615Z,17.20
2022-10-10T17:37:18.646Z,17.20
2022-10-10T17:39:48.262Z,17.20
2022-10-10T17:42:16.365Z,17.10
2022-10-10T17:44:50.500Z,17.10
2022-10-10T17:47:21.895Z,17.20
2022-10-10T17:49:49.923Z,17.20
2022-10-10T17:52:21.223Z,17.20
2022-10-10T17:54:50.899Z,17.10
2022-10-10T17:57:20.124Z,17.00
2022-10-10T17:59:48.526Z,17.10
2022-10-10T18:02:18.828Z,17.00
2022-10-10T18:04:47.376Z,17.00
2022-10-10T18:07:16.198Z,17.00
2022-10-10T18:09:44.327Z,16.90
2022-10-10T18:12:13.638Z,16.90
2022-10-10T18:14:44.644Z,16.90
2022-10-10T18:17:16.755Z,16.80
2022-10-10T18:19:45.022Z,16.70
2022-10-10T18:22:13.001Z,16.70
2022-10-10T18:24:41.081Z,16.50
2022-10-10T18:27:09.170Z,16.50
2022-10-10T18:29:39.574Z,16.40
2022-10-10T18:32:08.021Z,16.30
2022-10-10T18:34:36.243Z,16.20
2022-10-10T18:37:04.826Z,16.10
2022-10-10T18:39:33.837Z,16.10
2022-10-10T18:42:01.862Z,16.10
2022-10-10T18:44:30.521Z,16.10
2022-10-10T18:46:59.930Z,16.10
2022-10-10T18:49:28.369Z,16.20
2022-10-10T18:51:58.162Z,16.10
2022-10-10T18:54:27.393Z,16.00
2022-10-10T18:56:55.454Z,16.00
2022-10-10T18:59:23.521Z,16.00
2022-10-10T19:01:54.249Z,15.90
2022-10-10T19:04:24.818Z,15.90
2022-10-10T19:06:56.974Z,15.90
2022-10-10T19:09:25.577Z,15.90
2022-10-10T19:11:53.602Z,15.90
2022-10-10T19:14:22.181Z,15.80
2022-10-10T19:16:50.300Z,15.80
2022-10-10T19:19:20.120Z,15.80
2022-10-10T19:21:51.251Z,15.80
2022-10-10T19:24:21.168Z,15.80
2022-10-10T19:26:56.601Z,15.90
2022-10-10T19:29:26.125Z,15.80
2022-10-10T19:31:54.600Z,15.70
2022-10-10T19:34:23.051Z,15.80
2022-10-10T19:36:53.471Z,15.80
2022-10-10T19:39:23.856Z,15.70
2022-10-10T19:41:51.853Z,15.70
2022-10-10T19:44:19.809Z,15.80
2022-10-10T19:46:47.807Z,15.90
2022-10-10T19:49:16.064Z,15.90
2022-10-10T19:51:44.220Z,15.90
2022-10-10T19:54:13.533Z,15.80
2022-10-10T19:56:41.512Z,15.90
2022-10-10T19:59:09.631Z,16.00
2022-10-10T20:01:37.899Z,16.10
2022-10-10T20:04:06.094Z,16.10
2022-10-10T20:06:35.535Z,16.20
2022-10-10T20:09:07.097Z,16.20
2022-10-10T20:11:39.674Z,16.20
2022-10-10T20:14:08.145Z,16.10
2022-10-10T20:16:36.161Z,16.20
2022-10-10T20:19:04.601Z,15.90
2022-10-10T20:21:35.073Z,16.00
2022-10-10T20:24:06.885Z,16.00
2022-10-10T20:26:36.113Z,16.00
2022-10-10T20:29:07.016Z,16.10
2022-10-10T20:31:37.591Z,16.10
2022-10-10T20:34:07.401Z,16.10
2022-10-10T20:36:36.485Z,16.10
2022-10-10T20:39:08.953Z,16.00
2022-10-10T20:41:38.952Z,16.00
2022-10-10T20:44:12.090Z,16.00
2022-10-10T20:46:43.253Z,16.10
2022-10-10T20:49:15.769Z,16.10
2022-10-10T20:51:48.227Z,16.10
2022-10-10T20:54:18.650Z,16.20
2022-10-10T20:56:49.043Z,16.10
2022-10-10T20:59:19.084Z,16.10
2022-10-10T21:01:47.350Z,16.10
2022-10-10T21:04:15.581Z,16.10
2022-10-10T21:06:43.917Z,16.10
2022-10-10T21:09:14.754Z,16.00
2022-10-10T21:11:44.095Z,15.90
2022-10-10T21:14:16.298Z,15.90
2022-10-10T21:16:46.227Z,15.90
2022-10-10T21:19:16.347Z,15.90
2022-10-10T21:21:45.280Z,15.80
2022-10-10T21:24:15.207Z,15.70
2022-10-10T21:26:45.577Z,15.70
2022-10-10T21:29:13.747Z,15.60
2022-10-10T21:31:42.398Z,15.60
2022-10-10T21:34:16.849Z,15.60
2022-10-10T21:36:44.935Z,15.50
2022-10-10T21:39:13.878Z,15.50
2022-10-10T21:41:42.356Z,15.50
2022-10-10T21:44:11.558Z,15.50
2022-10-10T21:46:39.814Z,15.40
2022-10-10T21:49:11.991Z,15.40
2022-10-10T21:51:45.276Z,15.30
2022-10-10T21:54:14.510Z,15.30
2022-10-10T21:56:42.474Z,15.10
2022-10-10T21:59:12.367Z,15.10
2022-10-10T22:01:40.648Z,15.10
2022-10-10T22:04:08.639Z,14.90
2022-10-10T22:06:39.288Z,14.90
2022-10-10T22:09:07.440Z,14.80
2022-10-10T22:11:36.202Z,14.90
2022-10-10T22:14:06.197Z,14.90
2022-10-10T22:16:37.118Z,14.90
2022-10-10T22:19:05.778Z,14.80
2022-10-10T22:21:34.887Z,14.70
2022-10-10T22:24:08.182Z,14.70
2022-10-10T22:26:36.539Z,14.70
2022-10-10T22:29:05.669Z,14.70
2022-10-10T22:31:35.484Z,14.70
2022-10-10T22:34:03.827Z,14.60
2022-10-10T22:36:31.967Z,14.60
2022-10-10T22:39:00.252Z,14.50
2022-10-10T22:41:29.546Z,14.50
2022-10-10T22:43:57.504Z,14.50
2022-10-10T22:46:26.265Z,14.60
2022-10-10T22:48:54.254Z,14.60
2022-10-10T22:51:22.337Z,14.60
2022-10-10T22:53:50.547Z,14.50
2022-10-10T22:56:21.567Z,14.40
2022-10-10T22:58:52.358Z,14.40
2022-10-10T23:01:23.904Z,14.40
2022-10-10T23:03:55.580Z,14.40
2022-10-10T23:06:23.795Z,14.40
2022-10-10T23:08:52.060Z,14.40
2022-10-10T23:11:20.113Z,14.40
2022-10-10T23:13:48.111Z,14.50
2022-10-10T23:16:17.434Z,14.50
2022-10-10T23:18:45.823Z,14.50
2022-10-10T23:21:13.835Z,14.60
2022-10-10T23:23:41.962Z,14.60
2022-10-10T23:26:10.992Z,14.60
2022-10-10T23:28:39.809Z,14.60
2022-10-10T23:31:10.518Z,14.60
2022-10-10T23:33:40.388Z,14.50
2022-10-10T23:36:12.338Z,14.50
2022-10-10T23:38:41.215Z,14.60
2022-10-10T23:41:13.021Z,14.50
2022-10-10T23:43:41.369Z,14.40
2022-10-10T23:46:09.602Z,14.40
2022-10-10T23:48:39.229Z,14.30
2022-10-10T23:51:07.923Z,14.20
2022-10-10T23:53:36.499Z,14.10
2022-10-10T23:56:05.748Z,14.00
2022-10-10T23:58:33.986Z,13.90
